createdAt,value
2023-04-07T00:00:27.220Z,95.90
2023-04-07T00:02:54.479Z,96.20
2023-04-07T00:05:21.576Z,96.30
2023-04-07T00:07:56.510Z,96.60
2023-04-07T00:10:25.344Z,96.60
2023-04-07T00:12:52.563Z,97.30
2023-04-07T00:15:19.500Z,97.20
2023-04-07T00:17:46.372Z,97.00
2023-04-07T00:20:13.306Z,97.30
2023-04-07T00:22:40.205Z,97.10
2023-04-07T00:25:07.693Z,97.10
2023-04-07T00:27:34.568Z,97.10
2023-04-07T00:30:01.819Z,97.30
2023-04-07T00:32:28.706Z,97.70
2023-04-07T00:34:55.794Z,97.90
2023-04-07T00:37:22.673Z,97.60
2023-04-07T00:39:51.670Z,97.70
2023-04-07T00:42:19.747Z,97.80
2023-04-07T00:44:46.662Z,97.90
2023-04-07T00:47:14.445Z,98.20
2023-04-07T00:49:41.414Z,98.00
2023-04-07T00:52:11.364Z,98.10
2023-04-07T00:54:39.677Z,98.30
2023-04-07T00:57:07.271Z,98.50
2023-04-07T00:59:34.656Z,98.80
2023-04-07T01:02:07.070Z,98.90
2023-04-07T01:04:41.469Z,99.10
2023-04-07T01:07:34.856Z,99.30
2023-04-07T01:10:10.657Z,99.40
2023-04-07T01:13:06.563Z,99.40
2023-04-07T01:15:35.149Z,99.60
2023-04-07T01:18:24.686Z,99.50
2023-04-07T01:20:54.785Z,99.50
2023-04-07T01:23:47.893Z,99.90
2023-04-07T01:26:24.845Z,99.90
2023-04-07T01:29:31.234Z,99.90
2023-04-07T01:32:02.249Z,99.90
2023-04-07T01:34:31.884Z,99.90
2023-04-07T01:37:01.636Z,99.90
2023-04-07T01:39:29.010Z,99.90
2023-04-07T01:41:57.689Z,99.90
2023-04-07T01:44:26.106Z,99.90
2023-04-07T01:46:54.519Z,99.90
2023-04-07T01:49:22.367Z,99.90
2023-04-07T01:51:51.020Z,99.90
2023-04-07T01:54:18.663Z,99.90
2023-04-07T01:56:46.057Z,99.90
2023-04-07T01:59:13.382Z,99.90
2023-04-07T02:01:41.053Z,99.90
2023-04-07T02:04:40.245Z,99.90
2023-04-07T02:07:12.786Z,99.90
2023-04-07T02:09:47.203Z,99.90
2023-04-07T02:12:16.007Z,99.90
2023-04-07T02:14:53.189Z,99.90
2023-04-07T02:17:25.472Z,99.90
2023-04-07T02:19:53.902Z,99.90
2023-04-07T02:22:20.772Z,99.90
2023-04-07T02:24:47.679Z,99.90
2023-04-07T02:27:14.582Z,99.90
2023-04-07T02:29:41.698Z,99.90
2023-04-07T02:32:09.011Z,99.90
2023-04-07T02:34:36.618Z,99.90
2023-04-07T02:37:03.964Z,99.90
2023-04-07T02:39:30.889Z,99.90
2023-04-07T02:41:57.738Z,99.90
2023-04-07T02:44:24.583Z,99.90
2023-04-07T02:46:51.568Z,99.90
2023-04-07T02:49:18.479Z,99.90
2023-04-07T02:51:47.060Z,99.90
2023-04-07T02:54:14.043Z,99.90
2023-04-07T02:56:40.896Z,99.90
2023-04-07T02:59:07.837Z,99.90
2023-04-07T03:01:40.588Z,99.90
2023-04-07T03:04:08.379Z,99.90
2023-04-07T03:06:35.374Z,99.90
2023-04-07T03:09:15.272Z,99.90
2023-04-07T03:11:42.546Z,99.90
2023-04-07T03:14:09.452Z,99.90
2023-04-07T03:16:43.402Z,99.90
2023-04-07T03:19:13.017Z,99.90
2023-04-07T03:21:45.681Z,99.90
2023-04-07T03:24:12.666Z,99.90
2023-04-07T03:26:39.560Z,99.90
2023-04-07T03:29:14.725Z,99.90
2023-04-07T03:31:43.332Z,99.90
2023-04-07T03:34:12.653Z,99.90
2023-04-07T03:36:39.611Z,99.90
2023-04-07T03:39:06.787Z,99.90
2023-04-07T03:41:33.741Z,99.90
2023-04-07T03:44:00.633Z,99.90
2023-04-07T03:46:28.401Z,99.90
2023-04-07T03:48:55.547Z,99.90
2023-04-07T03:51:22.709Z,99.90
2023-04-07T03:53:54.564Z,99.90
2023-04-07T03:56:42.096Z,99.90
2023-04-07T03:59:09.240Z,99.90
2023-04-07T04:01:42.058Z,99.90
2023-04-07T04:04:15.487Z,99.90
2023-04-07T04:06:42.610Z,99.90
2023-04-07T04:09:21.104Z,99.90
2023-04-07T04:11:49.281Z,99.90
2023-04-07T04:14:16.844Z,99.90
2023-04-07T04:16:49.687Z,99.90
2023-04-07T04:19:26.590Z,99.90
2023-04-07T04:21:55.553Z,99.90
2023-04-07T04:24:22.592Z,99.90
2023-04-07T04:26:49.695Z,99.90
2023-04-07T04:29:16.552Z,99.90
2023-04-07T04:31:44.494Z,99.90
2023-04-07T04:34:12.081Z,99.90
2023-04-07T04:36:41.037Z,99.90
2023-04-07T04:39:07.972Z,99.90
2023-04-07T04:41:36.108Z,99.90
2023-04-07T04:44:03.311Z,99.90
2023-04-07T04:46:31.932Z,99.90
2023-04-07T04:48:59.152Z,99.90
2023-04-07T04:51:27.286Z,99.90
2023-04-07T04:54:00.697Z,99.90
2023-04-07T04:56:28.182Z,99.90
2023-04-07T04:58:55.050Z,99.90
2023-04-07T05:01:36.778Z,99.90
2023-04-07T05:04:10.596Z,99.90
2023-04-07T05:06:42.114Z,99.90
2023-04-07T05:09:12.090Z,99.90
2023-04-07T05:11:43.858Z,99.90
2023-04-07T05:14:11.182Z,99.90
2023-04-07T05:16:43.094Z,99.90
2023-04-07T05:19:15.575Z,99.90
2023-04-07T05:21:42.491Z,99.90
2023-04-07T05:24:10.148Z,99.90
2023-04-07T05:26:38.363Z,99.90
2023-04-07T05:29:05.950Z,99.90
2023-04-07T05:31:33.632Z,99.90
2023-04-07T05:34:01.036Z,99.90
2023-04-07T05:36:35.282Z,99.90
2023-04-07T05:39:02.195Z,99.90
2023-04-07T05:41:29.078Z,99.90
2023-04-07T05:43:56.347Z,99.90
2023-04-07T05:46:23.474Z,99.90
2023-04-07T05:48:55.170Z,99.90
2023-04-07T05:51:22.023Z,99.90
2023-04-07T05:53:51.143Z,99.90
2023-04-07T05:56:21.862Z,99.90
2023-04-07T05:58:49.149Z,99.90
2023-04-07T06:01:17.228Z,99.90
2023-04-07T06:03:44.502Z,99.90
2023-04-07T06:06:19.076Z,99.90
2023-04-07T06:08:46.404Z,99.90
2023-04-07T06:11:13.777Z,99.90
2023-04-07T06:13:40.648Z,99.90
2023-04-07T06:16:07.673Z,99.90
2023-04-07T06:18:34.627Z,99.90
2023-04-07T06:21:01.521Z,99.90
2023-04-07T06:23:28.466Z,99.90
2023-04-07T06:25:55.410Z,99.90
2023-04-07T06:28:22.876Z,99.90
2023-04-07T06:30:49.927Z,99.90
2023-04-07T06:33:17.199Z,99.90
2023-04-07T06:35:44.097Z,99.90
2023-04-07T06:38:12.251Z,99.90
2023-04-07T06:40:39.116Z,99.90
2023-04-07T06:43:06.302Z,99.90
2023-04-07T06:45:59.306Z,99.90
2023-04-07T06:48:26.287Z,99.90
2023-04-07T06:50:53.110Z,99.90
2023-04-07T06:53:19.955Z,99.90
2023-04-07T06:55:46.773Z,99.90
2023-04-07T06:58:13.579Z,99.90
2023-04-07T07:00:40.388Z,99.90
2023-04-07T07:03:07.303Z,99.90
2023-04-07T07:05:34.364Z,99.90
2023-04-07T07:08:01.182Z,99.90
2023-04-07T07:10:28.220Z,99.90
2023-04-07T07:12:55.251Z,99.90
2023-04-07T07:15:22.456Z,99.90
2023-04-07T07:17:49.328Z,99.90
2023-04-07T07:20:16.346Z,99.90
2023-04-07T07:22:43.214Z,99.90
2023-04-07T07:25:10.302Z,99.90
2023-04-07T07:27:37.209Z,99.90
2023-04-07T07:30:04.478Z,99.90
2023-04-07T07:32:31.618Z,99.90
2023-04-07T07:34:59.259Z,99.90
2023-04-07T07:37:26.018Z,99.90
2023-04-07T07:39:52.815Z,99.90
2023-04-07T07:42:19.687Z,99.90
2023-04-07T07:44:46.564Z,99.90
2023-04-07T07:47:13.360Z,99.90
2023-04-07T07:49:40.257Z,99.90
2023-04-07T07:52:09.222Z,99.90
2023-04-07T07:54:37.116Z,99.90
2023-04-07T07:57:04.470Z,99.90
2023-04-07T07:59:31.400Z,99.90
2023-04-07T08:01:58.712Z,99.90
2023-04-07T08:04:26.268Z,99.90
2023-04-07T08:06:53.524Z,99.90
2023-04-07T08:09:20.717Z,99.90
2023-04-07T08:11:51.206Z,99.90
2023-04-07T08:14:18.260Z,99.90
2023-04-07T08:16:45.704Z,99.90
2023-04-07T08:19:13.679Z,99.90
2023-04-07T08:21:40.664Z,99.90
2023-04-07T08:24:07.791Z,99.90
2023-04-07T08:26:34.617Z,99.90
2023-04-07T08:29:01.512Z,99.90
2023-04-07T08:31:28.414Z,99.90
2023-04-07T08:33:58.182Z,99.90
2023-04-07T08:36:27.266Z,99.90
2023-04-07T08:38:54.368Z,99.90
2023-04-07T08:41:37.961Z,99.90
2023-04-07T08:44:05.006Z,99.90
2023-04-07T08:46:34.137Z,99.90
2023-04-07T08:49:02.117Z,99.90
2023-04-07T08:51:33.170Z,99.90
2023-04-07T08:54:11.726Z,99.90
2023-04-07T08:56:43.548Z,99.90
2023-04-07T08:59:14.998Z,99.90
2023-04-07T09:01:42.396Z,99.90
2023-04-07T09:04:10.503Z,99.90
2023-04-07T09:06:37.980Z,99.90
2023-04-07T09:09:08.577Z,99.90
2023-04-07T09:11:41.041Z,99.90
2023-04-07T09:14:08.084Z,99.90
2023-04-07T09:16:35.455Z,99.90
2023-04-07T09:19:02.380Z,99.90
2023-04-07T09:21:50.674Z,99.90
2023-04-07T09:24:21.948Z,99.90
2023-04-07T09:26:48.880Z,99.90
2023-04-07T09:29:20.664Z,99.90
2023-04-07T09:31:55.205Z,99.90
2023-04-07T09:34:28.087Z,99.90
2023-04-07T09:36:56.717Z,99.90
2023-04-07T09:39:24.592Z,99.90
2023-04-07T09:41:52.153Z,99.90
2023-04-07T09:44:19.848Z,99.90
2023-04-07T09:46:57.456Z,99.90
2023-04-07T09:49:25.653Z,99.90
2023-04-07T09:51:58.024Z,99.90
2023-04-07T09:54:39.166Z,99.90
2023-04-07T09:57:10.693Z,99.90
2023-04-07T09:59:39.770Z,99.90
2023-04-07T10:02:07.831Z,99.90
2023-04-07T10:04:34.900Z,99.90
2023-04-07T10:07:03.582Z,99.90
2023-04-07T10:09:31.110Z,99.90
2023-04-07T10:11:59.768Z,99.90
2023-04-07T10:14:29.990Z,99.90
2023-04-07T10:16:57.483Z,99.90
2023-04-07T10:19:25.559Z,99.90
2023-04-07T10:21:54.054Z,99.90
2023-04-07T10:24:56.184Z,99.90
2023-04-07T10:27:36.926Z,99.90
2023-04-07T10:30:07.132Z,99.90
2023-04-07T10:32:47.223Z,99.90
2023-04-07T10:35:14.150Z,99.90
2023-04-07T10:37:41.142Z,99.90
2023-04-07T10:40:21.044Z,99.90
2023-04-07T10:42:47.952Z,99.90
2023-04-07T10:45:15.009Z,99.90
2023-04-07T10:48:02.954Z,99.90
2023-04-07T10:50:29.935Z,99.90
2023-04-07T10:53:13.806Z,99.90
2023-04-07T10:55:45.178Z,99.90
2023-04-07T10:58:15.326Z,99.90
2023-04-07T11:00:43.535Z,99.90
2023-04-07T11:03:13.438Z,99.90
2023-04-07T11:05:41.246Z,99.90
2023-04-07T11:08:08.185Z,99.90
2023-04-07T11:10:36.130Z,99.90
2023-04-07T11:13:12.208Z,99.90
2023-04-07T11:15:40.704Z,99.90
2023-04-07T11:18:19.154Z,99.90
2023-04-07T11:20:48.707Z,99.90
2023-04-07T11:23:17.205Z,99.90
2023-04-07T11:25:46.430Z,99.90
2023-04-07T11:28:14.194Z,99.90
2023-04-07T11:30:50.189Z,99.90
2023-04-07T11:33:18.728Z,99.90
2023-04-07T11:35:55.430Z,99.90
2023-04-07T11:38:24.567Z,99.90
2023-04-07T11:40:51.939Z,99.90
2023-04-07T11:43:24.148Z,99.90
2023-04-07T11:46:11.522Z,99.90
2023-04-07T11:48:40.740Z,99.90
2023-04-07T11:51:16.489Z,99.90
2023-04-07T11:53:43.418Z,99.90
2023-04-07T11:56:19.168Z,99.90
2023-04-07T11:58:49.580Z,99.90
2023-04-07T12:01:16.879Z,99.90
2023-04-07T12:04:01.954Z,99.90
2023-04-07T12:06:38.705Z,99.90
2023-04-07T12:09:06.343Z,99.90
2023-04-07T12:11:34.572Z,99.90
2023-04-07T12:14:02.122Z,99.90
2023-04-07T12:16:29.013Z,99.90
2023-04-07T12:18:55.900Z,99.90
2023-04-07T12:21:23.034Z,99.90
2023-04-07T12:23:50.263Z,99.90
2023-04-07T12:26:18.831Z,99.90
2023-04-07T12:28:46.586Z,99.90
2023-04-07T12:31:13.431Z,99.90
2023-04-07T12:33:40.355Z,99.90
2023-04-07T12:36:07.385Z,99.90
2023-04-07T12:38:34.269Z,99.90
2023-04-07T12:41:03.582Z,99.90
2023-04-07T12:43:31.586Z,99.90
2023-04-07T12:45:58.646Z,99.90
2023-04-07T12:48:27.517Z,99.90
2023-04-07T12:50:54.699Z,99.90
2023-04-07T12:53:21.566Z,99.90
2023-04-07T12:55:50.376Z,99.90
2023-04-07T12:58:18.577Z,99.90
2023-04-07T13:00:47.795Z,99.90
2023-04-07T13:03:14.881Z,99.90
2023-04-07T13:05:41.887Z,99.90
2023-04-07T13:08:08.792Z,99.90
2023-04-07T13:10:35.839Z,99.90
2023-04-07T13:13:02.791Z,99.90
2023-04-07T13:15:29.613Z,99.90
2023-04-07T13:17:56.479Z,99.90
2023-04-07T13:20:23.474Z,99.90
2023-04-07T13:23:02.946Z,99.90
2023-04-07T13:25:34.302Z,99.90
2023-04-07T13:28:01.304Z,99.90
2023-04-07T13:30:28.577Z,99.90
2023-04-07T13:32:55.811Z,99.90
2023-04-07T13:35:23.011Z,99.90
2023-04-07T13:37:49.844Z,99.90
2023-04-07T13:40:16.771Z,99.90
2023-04-07T13:42:43.685Z,99.90
2023-04-07T13:45:10.996Z,99.90
2023-04-07T13:47:37.951Z,99.90
2023-04-07T13:50:05.318Z,99.90
2023-04-07T13:52:35.130Z,99.90
2023-04-07T13:55:03.970Z,99.90
2023-04-07T13:57:31.032Z,99.90
2023-04-07T13:59:58.024Z,99.90
2023-04-07T14:02:28.181Z,99.90
2023-04-07T14:04:55.543Z,99.90
2023-04-07T14:07:23.227Z,99.90
2023-04-07T14:09:50.190Z,99.90
2023-04-07T14:12:17.183Z,99.90
2023-04-07T14:14:44.064Z,99.90
2023-04-07T14:17:11.091Z,99.90
2023-04-07T14:19:37.905Z,99.90
2023-04-07T14:22:04.798Z,99.90
2023-04-07T14:24:31.598Z,99.90
2023-04-07T14:26:58.495Z,99.90
2023-04-07T14:29:25.470Z,99.90
2023-04-07T14:31:52.404Z,99.90
2023-04-07T14:34:19.273Z,99.90
2023-04-07T14:36:56.492Z,99.90
2023-04-07T14:39:24.156Z,99.90
2023-04-07T14:41:52.821Z,99.90
2023-04-07T14:44:19.689Z,99.90
2023-04-07T14:46:46.755Z,99.90
2023-04-07T14:49:15.035Z,99.90
2023-04-07T14:51:41.902Z,99.90
2023-04-07T14:54:08.807Z,99.90
2023-04-07T14:56:35.755Z,99.90
2023-04-07T14:59:03.366Z,99.90
2023-04-07T15:01:30.348Z,99.90
2023-04-07T15:03:58.654Z,99.90
2023-04-07T15:06:26.420Z,99.90
2023-04-07T15:08:53.712Z,99.90
2023-04-07T15:11:21.768Z,99.90
2023-04-07T15:13:48.982Z,99.90
2023-04-07T15:16:16.474Z,99.90
2023-04-07T15:18:45.354Z,99.90
2023-04-07T15:21:13.620Z,99.90
2023-04-07T15:23:41.920Z,99.90
2023-04-07T15:26:09.835Z,99.90
2023-04-07T15:28:36.852Z,99.90
2023-04-07T15:31:08.323Z,99.90
2023-04-07T15:33:36.888Z,99.90
2023-04-07T15:36:04.940Z,99.90
2023-04-07T15:38:31.931Z,99.90
2023-04-07T15:40:58.774Z,99.90
2023-04-07T15:43:25.833Z,99.90
2023-04-07T15:45:56.042Z,99.90
2023-04-07T15:48:22.909Z,99.90
2023-04-07T15:50:49.849Z,99.90
2023-04-07T15:53:16.772Z,99.90
2023-04-07T15:55:44.341Z,99.90
2023-04-07T15:58:11.254Z,99.90
2023-04-07T16:00:39.005Z,99.90
2023-04-07T16:03:06.208Z,99.90
2023-04-07T16:05:33.566Z,99.90
2023-04-07T16:08:00.659Z,99.90
2023-04-07T16:10:27.664Z,99.90
2023-04-07T16:12:54.789Z,99.90
2023-04-07T16:15:32.883Z,99.90
2023-04-07T16:18:10.001Z,99.90
2023-04-07T16:20:36.963Z,99.90
2023-04-07T16:23:04.169Z,99.90
2023-04-07T16:25:31.273Z,99.90
2023-04-07T16:27:58.178Z,99.90
2023-04-07T16:30:25.322Z,99.90
2023-04-07T16:32:52.356Z,99.90
2023-04-07T16:35:19.484Z,99.90
2023-04-07T16:37:46.653Z,99.90
2023-04-07T16:40:14.003Z,99.90
2023-04-07T16:42:41.247Z,99.90
2023-04-07T16:45:08.678Z,99.90
2023-04-07T16:47:35.844Z,99.90
2023-04-07T16:50:04.221Z,99.90
2023-04-07T16:52:31.793Z,99.90
2023-04-07T16:54:59.341Z,99.90
2023-04-07T16:57:26.243Z,99.90
2023-04-07T16:59:53.365Z,99.90
2023-04-07T17:02:20.463Z,99.90
2023-04-07T17:04:47.473Z,99.90
2023-04-07T17:07:14.363Z,99.90
2023-04-07T17:09:41.291Z,99.90
2023-04-07T17:12:08.208Z,99.90
2023-04-07T17:14:35.108Z,99.90
2023-04-07T17:17:02.361Z,99.90
2023-04-07T17:19:29.511Z,99.90
2023-04-07T17:21:56.676Z,99.90
2023-04-07T17:24:23.928Z,99.90
2023-04-07T17:26:51.496Z,99.90
2023-04-07T17:29:18.449Z,99.90
2023-04-07T17:31:45.303Z,99.90
2023-04-07T17:34:12.225Z,99.90
2023-04-07T17:36:39.238Z,99.90
2023-04-07T17:39:06.135Z,99.90
2023-04-07T17:41:34.669Z,99.90
2023-04-07T17:44:02.251Z,99.90
2023-04-07T17:46:29.846Z,99.90
2023-04-07T17:48:59.663Z,99.90
2023-04-07T17:51:27.665Z,99.90
2023-04-07T17:53:55.232Z,99.90
2023-04-07T17:56:22.281Z,99.90
2023-04-07T17:58:49.141Z,99.90
2023-04-07T18:01:17.081Z,99.90
2023-04-07T18:03:44.247Z,99.90
2023-04-07T18:06:18.168Z,99.90
2023-04-07T18:08:48.501Z,99.90
2023-04-07T18:11:16.719Z,99.90
2023-04-07T18:13:43.607Z,99.90
2023-04-07T18:16:11.918Z,99.90
2023-04-07T18:18:38.947Z,99.90
2023-04-07T18:21:08.937Z,99.90
2023-04-07T18:23:43.083Z,99.90
2023-04-07T18:26:10.555Z,99.90
2023-04-07T18:28:37.685Z,99.90
2023-04-07T18:31:07.719Z,99.90
2023-04-07T18:33:36.242Z,99.90
2023-04-07T18:36:05.021Z,99.90
2023-04-07T18:38:31.969Z,99.90
2023-04-07T18:40:59.567Z,99.90
2023-04-07T18:43:26.561Z,99.90
2023-04-07T18:45:53.754Z,99.90
2023-04-07T18:48:21.709Z,99.90
2023-04-07T18:50:53.373Z,99.90
2023-04-07T18:53:21.147Z,99.90
2023-04-07T18:55:48.737Z,99.90
2023-04-07T18:58:15.919Z,99.90
2023-04-07T19:00:43.201Z,99.90
2023-04-07T19:03:10.903Z,99.90
2023-04-07T19:05:39.713Z,99.90
2023-04-07T19:08:07.020Z,99.90
2023-04-07T19:10:34.598Z,99.90
2023-04-07T19:13:01.896Z,99.90
2023-04-07T19:15:34.029Z,99.90
2023-04-07T19:18:04.808Z,99.90
2023-04-07T19:20:33.743Z,99.90
2023-04-07T19:23:01.877Z,99.90
2023-04-07T19:25:29.900Z,99.90
2023-04-07T19:27:57.873Z,99.90
2023-04-07T19:30:25.020Z,99.90
2023-04-07T19:32:52.408Z,99.90
2023-04-07T19:35:19.410Z,99.90
2023-04-07T19:37:47.942Z,99.90
2023-04-07T19:40:15.432Z,99.90
2023-04-07T19:42:42.625Z,99.90
2023-04-07T19:45:10.204Z,99.90
2023-04-07T19:47:37.647Z,99.90
2023-04-07T19:50:05.542Z,99.90
2023-04-07T19:52:33.114Z,99.90
2023-04-07T19:55:01.258Z,99.90
2023-04-07T19:57:29.200Z,99.90
2023-04-07T19:59:56.094Z,99.90
2023-04-07T20:02:23.328Z,99.90
2023-04-07T20:04:50.315Z,99.90
2023-04-07T20:07:17.189Z,99.90
2023-04-07T20:09:44.954Z,99.90
2023-04-07T20:12:11.841Z,99.90
2023-04-07T20:14:38.753Z,99.90
2023-04-07T20:17:05.705Z,99.90
2023-04-07T20:19:32.676Z,99.90
2023-04-07T20:21:59.503Z,99.90
2023-04-07T20:24:26.445Z,99.90
2023-04-07T20:26:53.249Z,99.90
2023-04-07T20:29:21.743Z,99.90
2023-04-07T20:31:49.160Z,99.90
2023-04-07T20:34:16.584Z,99.90
2023-04-07T20:36:43.563Z,99.90
2023-04-07T20:39:10.384Z,99.90
2023-04-07T20:41:37.581Z,99.90
2023-04-07T20:44:05.632Z,99.90
2023-04-07T20:46:33.456Z,99.90
2023-04-07T20:49:00.680Z,99.90
2023-04-07T20:51:28.839Z,99.90
2023-04-07T20:53:55.664Z,99.90
2023-04-07T20:56:23.809Z,99.90
2023-04-07T20:58:50.983Z,99.90
2023-04-07T21:01:18.076Z,99.90
2023-04-07T21:03:45.123Z,99.90
2023-04-07T21:06:12.206Z,99.90
2023-04-07T21:08:39.528Z,99.90
2023-04-07T21:11:06.428Z,99.90
2023-04-07T21:13:33.281Z,99.90
2023-04-07T21:16:01.290Z,99.90
2023-04-07T21:18:28.227Z,99.90
2023-04-07T21:20:57.744Z,99.90
2023-04-07T21:23:24.768Z,99.90
2023-04-07T21:25:51.584Z,99.90
2023-04-07T21:28:18.426Z,99.90
2023-04-07T21:30:45.488Z,99.90
2023-04-07T21:33:14.089Z,99.90
2023-04-07T21:35:41.241Z,99.90
2023-04-07T21:38:08.145Z,99.90
2023-04-07T21:40:34.964Z,99.90
2023-04-07T21:43:01.850Z,99.90
2023-04-07T21:45:29.721Z,99.90
2023-04-07T21:47:56.760Z,99.90
2023-04-07T21:50:24.160Z,99.90
2023-04-07T21:52:51.766Z,99.90
2023-04-07T21:55:18.987Z,99.90
2023-04-07T21:57:45.919Z,99.90
2023-04-07T22:00:14.085Z,99.90
2023-04-07T22:02:45.328Z,99.90
2023-04-07T22:05:12.382Z,99.90
2023-04-07T22:07:39.193Z,99.90
2023-04-07T22:10:06.713Z,99.90
2023-04-07T22:12:33.516Z,99.90
2023-04-07T22:15:00.485Z,99.90
2023-04-07T22:17:27.491Z,99.90
2023-04-07T22:19:54.322Z,99.90
2023-04-07T22:22:21.306Z,99.90
2023-04-07T22:24:48.146Z,99.90
2023-04-07T22:27:15.046Z,99.90
2023-04-07T22:29:41.911Z,99.90
2023-04-07T22:32:08.748Z,99.90
2023-04-07T22:34:35.624Z,99.90
2023-04-07T22:37:02.538Z,99.90
2023-04-07T22:39:29.466Z,99.90
2023-04-07T22:41:56.382Z,99.90
2023-04-07T22:44:23.221Z,99.90
2023-04-07T22:46:50.137Z,99.90
2023-04-07T22:49:17.163Z,99.90
2023-04-07T22:51:48.419Z,99.90
2023-04-07T22:54:18.252Z,99.90
2023-04-07T22:56:45.285Z,99.90
2023-04-07T22:59:12.142Z,99.90
2023-04-07T23:01:39.136Z,99.90
2023-04-07T23:04:06.017Z,99.90
2023-04-07T23:06:33.590Z,99.90
2023-04-07T23:09:00.531Z,99.90
2023-04-07T23:11:27.422Z,99.90
2023-04-07T23:13:54.325Z,99.90
2023-04-07T23:16:21.307Z,99.90
2023-04-07T23:18:48.311Z,99.90
2023-04-07T23:21:15.396Z,99.90
2023-04-07T23:23:42.492Z,99.90
2023-04-07T23:26:09.353Z,99.90
2023-04-07T23:28:36.648Z,99.90
2023-04-07T23:31:03.630Z,99.90
2023-04-07T23:33:34.009Z,99.90
2023-04-07T23:36:01.358Z,99.90
2023-04-07T23:38:28.254Z,99.90
2023-04-07T23:40:55.083Z,99.90
2023-04-07T23:43:21.902Z,99.90
2023-04-07T23:45:48.805Z,99.90
2023-04-07T23:48:16.191Z,99.90
2023-04-07T23:50:43.032Z,99.90
2023-04-07T23:53:09.928Z,99.90
2023-04-07T23:55:36.838Z,99.90
2023-04-07T23:58:03.745Z,99.90
